Time;durP1;ratioP1;P1;durP2;ratioP2;P2;SDS_P1;SDS_P2;PMS_P1;PMS_P2;Temp;Humidity;BMP_temperature;BMP_pressure;BME280_temperature;BME280_humidity;BME280_pressure;Samples;Min_cycle;Max_cycle;Signal;HPM_P1;HPM_P2
2023/09/11 04:31:50;;;;;;;0.00;0.00;;;20.80;80.90;;;;;;5263291;23;20537;-83
2023/09/11 04:34:16;;;;;;;0.00;0.00;;;20.80;81.10;;;;;;4965909;28;20023;-83
2023/09/11 04:36:42;;;;;;;0.00;0.00;;;20.80;81.10;;;;;;4966973;28;20398;-83
2023/09/11 04:39:08;;;;;;;0.00;0.00;;;20.80;81.00;;;;;;4938783;29;20038;-82
2023/09/11 04:41:33;;;;;;;0.00;0.00;;;20.80;81.10;;;;;;4943772;29;20024;-82
2023/09/11 04:43:59;;;;;;;0.00;0.00;;;20.80;81.10;;;;;;4938802;29;20043;-83
2023/09/11 04:46:25;;;;;;;0.00;0.00;;;20.80;81.10;;;;;;4938787;29;20027;-83
2023/09/11 04:48:51;;;;;;;0.00;0.00;;;20.80;81.10;;;;;;4948409;28;20027;-84
2023/09/11 04:51:17;;;;;;;0.00;0.00;;;20.80;80.80;;;;;;4933074;29;20035;-85
2023/09/11 04:53:42;;;;;;;0.00;0.00;;;20.80;81.00;;;;;;4957882;29;20037;-82
2023/09/11 04:56:09;;;;;;;0.00;0.00;;;20.80;81.10;;;;;;4946063;29;20055;-84
2023/09/11 04:58:34;;;;;;;0.00;0.00;;;20.80;81.10;;;;;;4939717;29;20082;-79
2023/09/11 05:01:00;;;;;;;0.00;0.00;;;20.80;80.90;;;;;;4955943;29;20031;-81
2023/09/11 05:03:26;;;;;;;0.00;0.00;;;20.80;80.80;;;;;;4946421;29;20766;-80
2023/09/11 05:05:51;;;;;;;0.13;0.10;;;20.80;81.00;;;;;;4946595;28;20038;-80
2023/09/11 05:08:17;;;;;;;0.00;0.00;;;20.80;81.10;;;;;;4951240;29;20125;-83
2023/09/11 05:10:44;;;;;;;0.00;0.00;;;20.80;81.30;;;;;;4924739;29;20031;-80
2023/09/11 05:13:13;;;;;;;0.10;0.10;;;20.80;81.30;;;;;;4957381;29;20451;-78
2023/09/11 05:15:39;;;;;;;0.00;0.00;;;20.80;81.30;;;;;;4957407;29;20035;-88
2023/09/11 05:18:05;;;;;;;0.00;0.00;;;20.80;81.20;;;;;;4939444;29;20094;-83
2023/09/11 05:20:31;;;;;;;0.00;0.00;;;20.80;81.20;;;;;;4947857;29;20027;-85
2023/09/11 05:22:57;;;;;;;0.00;0.00;;;20.80;81.10;;;;;;4939355;29;20114;-82
2023/09/11 05:25:23;;;;;;;0.00;0.00;;;20.80;81.20;;;;;;4949978;29;20035;-83
2023/09/11 05:27:49;;;;;;;0.05;0.05;;;20.80;81.10;;;;;;4957547;29;20031;-83
2023/09/11 05:30:15;;;;;;;0.10;0.10;;;20.80;81.10;;;;;;4945118;29;20095;-84
2023/09/11 05:32:40;;;;;;;0.00;0.00;;;20.80;81.00;;;;;;4938242;29;20043;-84
2023/09/11 05:35:07;;;;;;;0.00;0.00;;;20.80;81.00;;;;;;4946801;29;20051;-84
2023/09/11 05:37:33;;;;;;;0.00;0.00;;;20.80;81.10;;;;;;4938132;29;20032;-71
2023/09/11 05:40:00;;;;;;;0.00;0.00;;;20.80;80.90;;;;;;4945276;28;20154;-71
2023/09/11 05:42:26;;;;;;;0.00;0.00;;;20.80;81.10;;;;;;4956163;29;20123;-70
2023/09/11 05:44:52;;;;;;;0.00;0.00;;;20.80;81.40;;;;;;4955417;29;20088;-73
2023/09/11 05:47:17;;;;;;;0.10;0.03;;;20.70;81.70;;;;;;4940458;29;20039;-70
2023/09/11 05:49:43;;;;;;;0.00;0.00;;;20.70;81.80;;;;;;4944101;28;20038;-70
2023/09/11 05:52:09;;;;;;;0.00;0.00;;;20.70;81.90;;;;;;4956844;28;20029;-82
2023/09/11 05:54:34;;;;;;;0.00;0.00;;;20.70;82.00;;;;;;4954194;28;20027;-82
2023/09/11 05:57:05;;;;;;;0.00;0.00;;;20.80;81.90;;;;;;4940130;28;20111;-82
2023/09/11 05:59:31;;;;;;;0.00;0.00;;;20.80;81.70;;;;;;4952508;28;20484;-82
2023/09/11 06:01:56;;;;;;;0.00;0.00;;;20.80;81.50;;;;;;4939455;28;20035;-82
2023/09/11 06:04:22;;;;;;;0.00;0.00;;;20.90;81.40;;;;;;4960747;29;20034;-82
2023/09/11 06:06:48;;;;;;;0.03;0.03;;;20.90;81.30;;;;;;4947675;29;20032;-81
2023/09/11 06:09:13;;;;;;;0.00;0.00;;;20.90;81.30;;;;;;4940409;29;20031;-81
2023/09/11 06:11:39;;;;;;;0.10;0.10;;;20.90;81.30;;;;;;4948078;28;20068;-81
2023/09/11 06:14:06;;;;;;;0.00;0.00;;;20.90;81.20;;;;;;4940393;29;20032;-81
2023/09/11 06:16:32;;;;;;;0.00;0.00;;;20.90;81.30;;;;;;4941284;29;20110;-81
2023/09/11 06:18:58;;;;;;;0.00;0.00;;;20.90;81.40;;;;;;4942558;28;20035;-81
2023/09/11 06:21:24;;;;;;;0.05;0.00;;;20.90;81.20;;;;;;4947353;29;20044;-81
2023/09/11 06:23:50;;;;;;;0.00;0.00;;;21.00;81.10;;;;;;4940226;29;20031;-81
2023/09/11 06:26:16;;;;;;;0.00;0.00;;;21.00;81.10;;;;;;4959919;29;20024;-81
2023/09/11 06:28:42;;;;;;;0.10;0.05;;;21.00;81.30;;;;;;4947874;29;20040;-81
2023/09/11 06:31:09;;;;;;;0.00;0.00;;;21.00;81.10;;;;;;4939579;29;20467;-81
2023/09/11 06:33:35;;;;;;;0.10;0.10;;;21.00;80.90;;;;;;4954491;29;20027;-81
2023/09/11 06:36:00;;;;;;;0.00;0.00;;;21.00;81.00;;;;;;4957340;28;20078;-80
2023/09/11 06:38:26;;;;;;;0.00;0.00;;;21.00;81.20;;;;;;4959984;29;20103;-80
2023/09/11 06:40:52;;;;;;;0.10;0.10;;;21.10;81.20;;;;;;4953888;28;20028;-80
2023/09/11 06:43:17;;;;;;;0.00;0.00;;;21.10;81.10;;;;;;4944841;28;20043;-80
2023/09/11 06:45:43;;;;;;;0.00;0.00;;;21.10;81.00;;;;;;4956419;28;20034;-80
2023/09/11 06:48:12;;;;;;;0.10;0.10;;;21.20;81.20;;;;;;4941098;29;20098;-80
2023/09/11 06:50:41;;;;;;;0.10;0.10;;;21.20;81.00;;;;;;4942151;29;20035;-80
2023/09/11 06:53:10;;;;;;;0.00;0.00;;;21.20;81.00;;;;;;4946420;28;20039;-80
2023/09/11 06:55:43;;;;;;;0.08;0.08;;;21.20;80.90;;;;;;4960103;29;20031;-80
2023/09/11 06:58:08;;;;;;;;;;;21.30;80.90;;;;;;4954307;29;20040;-80
2023/09/11 07:00:34;;;;;;;0.10;0.10;;;21.30;80.70;;;;;;4939030;29;19906;-80
2023/09/11 07:02:59;;;;;;;0.00;0.00;;;21.30;80.70;;;;;;4937577;29;20027;-80
2023/09/11 07:05:27;;;;;;;0.10;0.00;;;21.40;80.50;;;;;;4940427;29;20023;-80
2023/09/11 07:07:53;;;;;;;0.05;0.05;;;21.40;80.50;;;;;;4940246;29;20495;-80
2023/09/11 07:10:18;;;;;;;0.10;0.00;;;21.40;80.60;;;;;;4942311;28;20162;-81
2023/09/11 07:12:45;;;;;;;0.00;0.00;;;21.40;80.50;;;;;;4938023;29;20036;-80
2023/09/11 07:15:11;;;;;;;0.00;0.00;;;21.40;80.40;;;;;;4956523;29;20031;-80
2023/09/11 07:17:36;;;;;;;0.10;0.10;;;21.40;80.50;;;;;;4942549;29;20462;-81
2023/09/11 07:20:04;;;;;;;0.00;0.00;;;21.40;80.50;;;;;;4955916;28;20032;-81
2023/09/11 07:22:30;;;;;;;0.00;0.00;;;21.40;80.40;;;;;;4942411;29;20032;-81
2023/09/11 07:24:56;;;;;;;0.00;0.00;;;21.40;80.50;;;;;;4959319;29;20019;-81
2023/09/11 07:27:22;;;;;;;0.00;0.00;;;21.40;80.70;;;;;;4940738;28;20585;-80
2023/09/11 07:29:49;;;;;;;0.00;0.00;;;21.40;80.80;;;;;;4959350;29;20055;-81
2023/09/11 07:32:15;;;;;;;0.00;0.00;;;21.40;80.70;;;;;;4957854;28;20046;-81
2023/09/11 07:34:42;;;;;;;0.00;0.00;;;21.50;80.70;;;;;;4940141;29;20383;-81
2023/09/11 07:37:08;;;;;;;0.00;0.00;;;21.60;80.50;;;;;;4938765;29;20059;-81
2023/09/11 07:39:33;;;;;;;0.00;0.00;;;21.70;80.30;;;;;;4939704;28;20513;-81
2023/09/11 07:41:59;;;;;;;0.10;0.10;;;21.70;80.10;;;;;;4961904;28;20019;-80
2023/09/11 07:44:25;;;;;;;0.00;0.00;;;21.80;79.90;;;;;;4946620;28;20027;-80
2023/09/11 07:46:50;;;;;;;0.00;0.00;;;21.80;80.00;;;;;;4947647;29;20397;-80
2023/09/11 07:49:16;;;;;;;0.00;0.00;;;21.80;79.90;;;;;;4947781;29;20561;-81
2023/09/11 07:51:42;;;;;;;0.00;0.00;;;21.80;79.80;;;;;;4938490;29;20036;-81
2023/09/11 07:54:07;;;;;;;0.03;0.03;;;21.80;80.00;;;;;;4938283;29;20079;-81
2023/09/11 07:56:33;;;;;;;0.00;0.00;;;21.80;79.80;;;;;;4939347;29;20038;-81
2023/09/11 07:59:01;;;;;;;0.00;0.00;;;21.80;80.00;;;;;;4939294;29;20036;-81
2023/09/11 08:01:26;;;;;;;0.00;0.00;;;21.90;79.90;;;;;;4940571;28;20119;-81
2023/09/11 08:03:52;;;;;;;0.00;0.00;;;21.90;79.40;;;;;;4957092;29;20043;-81
2023/09/11 08:06:20;;;;;;;0.10;0.10;;;21.90;79.40;;;;;;4958366;29;20035;-81
2023/09/11 08:08:46;;;;;;;0.00;0.00;;;22.00;79.40;;;;;;4942277;29;20024;-81
2023/09/11 08:11:17;;;;;;;0.00;0.00;;;22.00;79.00;;;;;;4938068;29;20044;-81
2023/09/11 08:13:46;;;;;;;0.00;0.00;;;22.10;78.60;;;;;;4939434;29;20028;-81
2023/09/11 08:16:12;;;;;;;0.10;0.10;;;22.10;78.50;;;;;;4938918;29;20040;-81
2023/09/11 08:18:37;;;;;;;0.00;0.00;;;22.20;78.60;;;;;;4942286;28;20039;-81
2023/09/11 08:21:04;;;;;;;0.00;0.00;;;22.10;78.50;;;;;;4941139;29;20126;-81
2023/09/11 08:23:30;;;;;;;0.00;0.00;;;22.10;78.40;;;;;;4955686;28;20106;-81
2023/09/11 08:26:01;;;;;;;0.00;0.00;;;22.20;78.20;;;;;;4958391;29;20066;-81
2023/09/11 08:28:27;;;;;;;0.00;0.00;;;22.20;78.10;;;;;;4949148;29;20494;-81
2023/09/11 08:30:53;;;;;;;0.00;0.00;;;22.20;78.00;;;;;;4938866;29;20052;-81
2023/09/11 08:33:21;;;;;;;0.00;0.00;;;22.20;77.80;;;;;;4933992;29;20099;-81
2023/09/11 08:35:48;;;;;;;0.00;0.00;;;22.10;78.00;;;;;;4935600;29;20027;-81
2023/09/11 08:38:14;;;;;;;0.00;0.00;;;22.00;78.00;;;;;;4958484;29;20085;-81
2023/09/11 08:40:42;;;;;;;0.00;0.00;;;22.10;78.00;;;;;;4940086;29;20034;-81
2023/09/11 08:43:07;;;;;;;0.10;0.00;;;22.10;78.20;;;;;;4958165;29;20032;-81
2023/09/11 08:45:33;;;;;;;0.00;0.00;;;22.00;78.10;;;;;;4937330;29;20414;-81
2023/09/11 08:47:59;;;;;;;0.00;0.00;;;22.00;78.30;;;;;;4938672;29;20558;-81
2023/09/11 08:50:30;;;;;;;0.00;0.00;;;22.00;78.20;;;;;;4938779;29;20031;-81
2023/09/11 08:52:58;;;;;;;0.03;0.03;;;22.00;78.30;;;;;;4940245;29;20031;-81
2023/09/11 08:55:25;;;;;;;0.00;0.00;;;22.10;78.30;;;;;;4957854;29;20035;-81
2023/09/11 08:57:51;;;;;;;0.00;0.00;;;22.10;78.40;;;;;;4939632;29;20035;-81
2023/09/11 09:00:18;;;;;;;0.03;0.03;;;22.30;78.10;;;;;;4940463;29;20644;-81
2023/09/11 09:02:45;;;;;;;0.00;0.00;;;22.30;78.20;;;;;;4957524;29;20031;-81
2023/09/11 09:05:11;;;;;;;0.00;0.00;;;22.30;77.80;;;;;;4939136;29;20036;-81
2023/09/11 09:07:38;;;;;;;0.13;0.03;;;22.40;77.70;;;;;;4937328;29;20031;-81
2023/09/11 09:10:05;;;;;;;0.00;0.00;;;22.50;77.50;;;;;;4942952;28;20031;-81
2023/09/11 09:12:31;;;;;;;0.00;0.00;;;22.60;76.80;;;;;;4957148;28;20049;-81
2023/09/11 09:14:58;;;;;;;0.00;0.00;;;22.60;76.80;;;;;;4939051;29;20124;-81
2023/09/11 09:17:24;;;;;;;0.08;0.08;;;22.80;76.50;;;;;;4940480;29;20051;-82
2023/09/11 09:19:49;;;;;;;0.00;0.00;;;22.80;76.10;;;;;;4956450;28;20199;-82
2023/09/11 09:22:16;;;;;;;0.10;0.10;;;22.90;76.10;;;;;;4953850;28;20020;-82
2023/09/11 09:24:53;;;;;;;0.00;0.00;;;23.00;75.80;;;;;;4944131;29;20027;-82
2023/09/11 09:27:20;;;;;;;0.00;0.00;;;23.10;75.40;;;;;;4939717;29;20099;-82
2023/09/11 09:29:48;;;;;;;0.00;0.00;;;23.20;75.10;;;;;;4957336;29;20042;-81
2023/09/11 09:32:14;;;;;;;0.00;0.00;;;23.30;75.00;;;;;;4953034;28;20402;-81
2023/09/11 09:34:51;;;;;;;0.00;0.00;;;23.30;74.60;;;;;;4939766;29;20110;-81
2023/09/11 09:37:18;;;;;;;0.00;0.00;;;23.30;74.40;;;;;;4956197;29;20066;-81
2023/09/11 09:39:45;;;;;;;0.00;0.00;;;23.30;74.30;;;;;;4943973;28;20474;-82
2023/09/11 09:42:12;;;;;;;0.00;0.00;;;23.30;74.60;;;;;;4953646;28;20024;-82
2023/09/11 09:44:39;;;;;;;0.00;0.00;;;23.30;74.60;;;;;;4950717;28;20106;-82
2023/09/11 09:47:16;;;;;;;0.00;0.00;;;23.30;74.80;;;;;;4937897;29;20030;-81
2023/09/11 09:49:49;;;;;;;0.10;0.10;;;23.30;74.80;;;;;;4936762;29;20059;-82
2023/09/11 09:52:15;;;;;;;;;;;23.30;74.80;;;;;;4936254;29;20035;-82
2023/09/11 09:54:49;;;;;;;0.00;0.00;;;23.30;74.50;;;;;;4937928;29;19910;-81
2023/09/11 09:57:19;;;;;;;0.10;0.10;;;23.50;74.50;;;;;;4944160;28;20520;-82
2023/09/11 09:59:53;;;;;;;0.10;0.10;;;23.60;73.70;;;;;;4936530;29;20036;-81
2023/09/11 10:02:29;;;;;;;0.10;0.00;;;23.60;73.70;;;;;;4948048;28;20482;-81
2023/09/11 10:05:01;;;;;;;0.00;0.00;;;23.50;73.80;;;;;;4955379;29;20042;-81
2023/09/11 10:07:44;;;;;;;0.00;0.00;;;23.60;74.00;;;;;;4957026;29;20031;-81
2023/09/11 10:10:27;;;;;;;0.00;0.00;;;23.70;73.60;;;;;;4947020;28;20032;-80
2023/09/11 10:13:06;;;;;;;0.00;0.00;;;23.80;73.10;;;;;;4957078;29;20556;-81
2023/09/11 10:15:37;;;;;;;0.00;0.00;;;23.90;73.00;;;;;;4956310;29;20477;-81
2023/09/11 10:18:03;;;;;;;0.00;0.00;;;24.00;72.40;;;;;;4949546;28;20083;-81
2023/09/11 10:20:30;;;;;;;0.00;0.00;;;24.20;72.10;;;;;;4939785;29;20730;-81
2023/09/11 10:22:59;;;;;;;0.00;0.00;;;24.30;71.40;;;;;;4937001;29;20043;-81
2023/09/11 10:25:28;;;;;;;0.00;0.00;;;24.30;71.50;;;;;;4949343;29;20053;-81
2023/09/11 10:28:02;;;;;;;0.00;0.00;;;24.40;71.00;;;;;;4944011;28;20059;-81
2023/09/11 10:30:51;;;;;;;0.10;0.10;;;24.30;70.40;;;;;;4920360;29;20423;-81
2023/09/11 10:33:21;;;;;;;0.00;0.00;;;24.40;70.80;;;;;;4939952;29;20039;-82
2023/09/11 10:35:51;;;;;;;0.00;0.00;;;24.40;70.00;;;;;;4938893;29;20628;-81
2023/09/11 10:38:17;;;;;;;0.08;0.08;;;24.50;70.50;;;;;;4956920;29;20138;-82
2023/09/11 10:40:44;;;;;;;0.10;0.10;;;24.80;70.70;;;;;;4966149;28;20034;-81
2023/09/11 10:43:10;;;;;;;0.00;0.00;;;25.10;69.70;;;;;;4940178;28;20106;-82
2023/09/11 10:45:36;;;;;;;0.00;0.00;;;25.30;69.50;;;;;;4931588;29;20023;-81
2023/09/11 10:48:02;;;;;;;0.00;0.00;;;25.40;67.80;;;;;;4942227;28;20713;-81
2023/09/11 10:50:43;;;;;;;0.00;0.00;;;25.40;68.20;;;;;;4949621;29;20027;-82
2023/09/11 10:53:09;;;;;;;0.00;0.00;;;25.40;67.90;;;;;;4951097;28;20565;-82
2023/09/11 10:55:35;;;;;;;0.00;0.00;;;25.40;67.30;;;;;;4960170;29;20027;-82
2023/09/11 10:58:05;;;;;;;0.10;0.10;;;25.20;68.30;;;;;;4953746;28;20027;-82
2023/09/11 11:00:37;;;;;;;0.00;0.00;;;25.30;67.80;;;;;;4941063;29;20031;-82
2023/09/11 11:03:04;;;;;;;0.00;0.00;;;25.30;68.20;;;;;;4939660;29;20486;-82
2023/09/11 11:05:32;;;;;;;0.00;0.00;;;25.30;68.20;;;;;;4940669;29;20371;-82
2023/09/11 11:07:57;;;;;;;0.00;0.00;;;25.30;67.60;;;;;;4940739;29;20039;-81
2023/09/11 11:10:23;;;;;;;0.00;0.00;;;25.10;67.80;;;;;;4952621;28;20039;-83
2023/09/11 11:13:03;;;;;;;0.00;0.00;;;25.00;68.50;;;;;;4960054;29;20498;-80
2023/09/11 11:15:29;;;;;;;0.10;0.10;;;25.00;68.30;;;;;;4941926;29;20032;-81
2023/09/11 11:18:11;;;;;;;0.00;0.00;;;25.10;68.30;;;;;;4952923;29;20095;-83
2023/09/11 11:20:57;;;;;;;0.00;0.00;;;25.10;68.00;;;;;;4940133;29;20119;-82
2023/09/11 11:23:25;;;;;;;0.00;0.00;;;25.20;68.10;;;;;;4943634;28;20062;-82
2023/09/11 11:25:51;;;;;;;0.00;0.00;;;25.30;68.30;;;;;;4958595;28;20019;-82
2023/09/11 11:28:21;;;;;;;0.00;0.00;;;25.30;68.20;;;;;;4957939;28;20043;-82
2023/09/11 11:30:52;;;;;;;0.05;0.05;;;25.30;68.40;;;;;;4941662;29;20051;-81
2023/09/11 11:33:23;;;;;;;0.00;0.00;;;25.30;68.50;;;;;;4959324;29;20501;-82
2023/09/11 11:35:50;;;;;;;0.00;0.00;;;25.10;68.20;;;;;;4957438;28;20038;-82
2023/09/11 11:38:19;;;;;;;0.00;0.00;;;25.10;68.50;;;;;;4959070;29;20062;-82
2023/09/11 11:40:47;;;;;;;0.00;0.00;;;25.00;68.50;;;;;;4968699;28;20035;-82
2023/09/11 11:43:14;;;;;;;0.00;0.00;;;24.90;68.80;;;;;;4963117;28;20091;-81
2023/09/11 11:45:47;;;;;;;0.00;0.00;;;25.00;69.00;;;;;;4958716;29;20054;-82
2023/09/11 11:48:13;;;;;;;0.00;0.00;;;25.00;68.60;;;;;;4954451;28;20461;-82
2023/09/11 11:50:43;;;;;;;0.00;0.00;;;25.00;68.70;;;;;;4958853;28;20122;-82
2023/09/11 11:53:16;;;;;;;0.00;0.00;;;25.00;69.00;;;;;;4941977;29;20050;-82
2023/09/11 11:55:43;;;;;;;0.00;0.00;;;24.80;68.60;;;;;;4941705;29;20039;-82
2023/09/11 11:58:15;;;;;;;0.00;0.00;;;24.80;68.80;;;;;;4939758;29;20086;-82
2023/09/11 12:00:54;;;;;;;0.00;0.00;;;24.70;68.90;;;;;;4943236;28;20066;-82
2023/09/11 12:03:20;;;;;;;0.00;0.00;;;24.80;69.60;;;;;;4946508;28;20038;-82
2023/09/11 12:05:46;;;;;;;0.00;0.00;;;24.80;69.40;;;;;;4939539;29;20044;-82
2023/09/11 12:08:12;;;;;;;0.00;0.00;;;25.00;69.10;;;;;;4940797;29;20031;-82
2023/09/11 12:10:48;;;;;;;0.00;0.00;;;25.20;69.10;;;;;;4937894;29;20055;-82
2023/09/11 12:13:18;;;;;;;0.00;0.00;;;25.40;68.20;;;;;;4938400;29;20039;-82
2023/09/11 12:15:52;;;;;;;0.00;0.00;;;25.60;67.60;;;;;;4939090;29;20042;-82
2023/09/11 12:18:18;;;;;;;0.10;0.10;;;25.60;66.60;;;;;;4938103;29;20525;-82
2023/09/11 12:21:01;;;;;;;0.00;0.00;;;25.90;66.90;;;;;;4922425;29;20032;-82
2023/09/11 12:23:27;;;;;;;0.00;0.00;;;26.00;66.00;;;;;;4926622;29;20577;-82
2023/09/11 12:25:53;;;;;;;0.00;0.00;;;26.10;65.30;;;;;;4954996;29;20067;-82
2023/09/11 12:28:21;;;;;;;0.03;0.03;;;26.40;65.70;;;;;;4958034;29;20454;-82
2023/09/11 12:30:48;;;;;;;0.00;0.00;;;26.70;64.70;;;;;;4948806;29;20052;-82
2023/09/11 12:33:16;;;;;;;0.00;0.00;;;26.60;64.60;;;;;;4932936;29;20549;-82
2023/09/11 12:35:45;;;;;;;0.10;0.10;;;26.40;64.20;;;;;;4941092;29;20057;-82
2023/09/11 12:38:11;;;;;;;0.00;0.00;;;26.40;64.70;;;;;;4940218;29;20043;-82
2023/09/11 12:40:39;;;;;;;0.03;0.03;;;26.60;64.20;;;;;;4967067;28;20097;-82
2023/09/11 12:43:05;;;;;;;0.00;0.00;;;26.70;64.50;;;;;;4973092;28;20030;-82
2023/09/11 12:45:32;;;;;;;0.00;0.00;;;26.60;64.50;;;;;;4938821;29;20024;-82
2023/09/11 12:47:58;;;;;;;0.00;0.00;;;26.40;64.50;;;;;;4936020;29;20042;-82
2023/09/11 12:50:24;;;;;;;0.00;0.00;;;26.30;65.10;;;;;;4921848;29;20035;-82
2023/09/11 12:52:51;;;;;;;0.00;0.00;;;26.30;65.10;;;;;;4938558;29;20364;-82
2023/09/11 12:55:16;;;;;;;0.00;0.00;;;26.20;66.10;;;;;;4938445;29;20811;-82
2023/09/11 12:57:42;;;;;;;0.00;0.00;;;26.00;66.00;;;;;;4953650;28;20568;-82
2023/09/11 13:00:12;;;;;;;0.00;0.00;;;26.00;65.90;;;;;;4957983;29;20147;-82
2023/09/11 13:02:38;;;;;;;0.05;0.05;;;26.00;66.00;;;;;;4950572;29;20517;-82
2023/09/11 13:05:08;;;;;;;0.00;0.00;;;26.10;65.80;;;;;;4956871;28;20027;-82
2023/09/11 13:07:36;;;;;;;0.10;0.10;;;26.30;65.40;;;;;;4944483;29;20036;-84
2023/09/11 13:10:05;;;;;;;0.00;0.00;;;26.40;65.30;;;;;;4940137;29;20065;-83
2023/09/11 13:12:32;;;;;;;0.00;0.00;;;26.60;65.50;;;;;;4957685;29;20402;-83
2023/09/11 13:14:58;;;;;;;0.00;0.00;;;26.70;65.40;;;;;;4957273;28;20078;-83
2023/09/11 13:17:24;;;;;;;0.00;0.00;;;26.80;65.10;;;;;;4922429;29;20028;-83
2023/09/11 13:19:49;;;;;;;0.00;0.00;;;26.70;64.50;;;;;;4938459;29;20474;-83
2023/09/11 13:22:15;;;;;;;0.00;0.00;;;26.60;65.00;;;;;;4938575;29;20398;-83
2023/09/11 13:24:41;;;;;;;0.00;0.00;;;26.60;65.20;;;;;;4941398;29;20035;-83
2023/09/11 13:27:07;;;;;;;0.00;0.00;;;26.60;64.20;;;;;;4950919;28;20023;-83
2023/09/11 13:29:33;;;;;;;0.00;0.00;;;26.70;64.50;;;;;;4940312;29;20035;-83
2023/09/11 13:31:58;;;;;;;0.00;0.00;;;26.70;64.90;;;;;;4956548;28;20058;-83
2023/09/11 13:34:24;;;;;;;0.00;0.00;;;26.70;64.60;;;;;;4951905;29;20037;-83
2023/09/11 13:36:53;;;;;;;0.00;0.00;;;26.80;64.70;;;;;;4938758;29;20031;-83
2023/09/11 13:39:19;;;;;;;0.00;0.00;;;26.80;64.10;;;;;;4956005;29;20032;-83
2023/09/11 13:41:45;;;;;;;0.00;0.00;;;26.80;64.00;;;;;;4957188;28;20046;-83
2023/09/11 13:44:11;;;;;;;0.00;0.00;;;26.80;64.50;;;;;;4938420;28;20070;-85
2023/09/11 13:46:36;;;;;;;0.10;0.10;;;26.80;64.60;;;;;;4965580;28;20026;-85
2023/09/11 13:49:02;;;;;;;0.00;0.00;;;26.90;64.30;;;;;;4948667;28;20050;-84
2023/09/11 13:51:28;;;;;;;0.00;0.00;;;27.10;64.40;;;;;;4948323;28;20027;-84
2023/09/11 13:53:53;;;;;;;0.00;0.00;;;27.20;63.90;;;;;;4948528;28;20045;-84
2023/09/11 13:56:20;;;;;;;0.00;0.00;;;27.00;63.80;;;;;;4966810;28;20030;-85
2023/09/11 13:58:46;;;;;;;0.00;0.00;;;26.80;63.70;;;;;;4961715;28;20576;-85
2023/09/11 14:01:12;;;;;;;0.00;0.00;;;26.60;63.90;;;;;;4947430;28;20074;-85
2023/09/11 14:03:37;;;;;;;0.00;0.00;;;26.40;64.70;;;;;;4964294;28;20027;-84
2023/09/11 14:06:03;;;;;;;0.00;0.00;;;26.30;64.40;;;;;;4962358;28;20410;-84
2023/09/11 14:08:30;;;;;;;0.00;0.00;;;26.20;65.00;;;;;;4947993;28;20482;-84
2023/09/11 14:10:56;;;;;;;0.00;0.00;;;26.10;66.00;;;;;;4965904;28;20015;-84
2023/09/11 14:13:23;;;;;;;0.00;0.00;;;25.90;66.10;;;;;;4948598;28;20030;-85
2023/09/11 14:15:49;;;;;;;0.00;0.00;;;25.80;67.30;;;;;;4963729;28;20034;-84
2023/09/11 14:18:15;;;;;;;0.00;0.00;;;25.80;67.20;;;;;;4946884;28;20031;-85
2023/09/11 14:20:40;;;;;;;0.00;0.00;;;25.80;67.20;;;;;;4964195;28;20015;-85
2023/09/11 14:23:06;;;;;;;0.00;0.00;;;25.80;67.20;;;;;;4955614;28;20517;-84
2023/09/11 14:25:31;;;;;;;0.00;0.00;;;25.80;67.40;;;;;;4951984;28;20024;-85
2023/09/11 14:27:58;;;;;;;0.00;0.00;;;25.90;67.10;;;;;;4959986;29;20390;-84
2023/09/11 14:30:24;;;;;;;0.00;0.00;;;26.00;66.80;;;;;;4941506;29;20039;-84
2023/09/11 14:32:50;;;;;;;0.05;0.00;;;26.00;66.70;;;;;;4940273;28;20439;-84
2023/09/11 14:35:16;;;;;;;0.00;0.00;;;26.00;66.50;;;;;;4942407;29;20142;-85
2023/09/11 14:37:41;;;;;;;0.00;0.00;;;26.00;66.20;;;;;;4939389;29;20624;-84
2023/09/11 14:40:08;;;;;;;0.00;0.00;;;26.10;66.50;;;;;;4958484;28;20406;-84
2023/09/11 14:42:34;;;;;;;0.00;0.00;;;26.10;66.40;;;;;;4941889;28;20035;-84
2023/09/11 14:45:00;;;;;;;0.03;0.00;;;26.10;66.30;;;;;;4959956;29;20038;-85
2023/09/11 14:47:26;;;;;;;0.00;0.00;;;26.10;66.90;;;;;;4959542;28;20081;-84
2023/09/11 14:49:53;;;;;;;0.00;0.00;;;26.20;66.70;;;;;;4935239;29;20023;-85
2023/09/11 14:52:19;;;;;;;0.00;0.00;;;26.20;66.60;;;;;;4952451;28;20011;-84
2023/09/11 14:54:45;;;;;;;0.00;0.00;;;26.20;67.20;;;;;;4955384;29;20037;-84
2023/09/11 14:57:10;;;;;;;0.00;0.00;;;26.20;67.10;;;;;;4957384;28;20051;-84
2023/09/11 14:59:36;;;;;;;0.00;0.00;;;26.10;66.90;;;;;;4940585;28;20102;-84
2023/09/11 15:02:02;;;;;;;0.00;0.00;;;26.00;67.20;;;;;;4959227;29;20034;-84
2023/09/11 15:04:28;;;;;;;0.00;0.00;;;26.00;67.00;;;;;;4941619;29;20122;-84
2023/09/11 15:06:54;;;;;;;0.00;0.00;;;26.00;66.90;;;;;;4959388;29;20063;-85
2023/09/11 15:09:20;;;;;;;0.00;0.00;;;26.00;67.50;;;;;;4953468;29;20095;-84
2023/09/11 15:11:45;;;;;;;0.00;0.00;;;25.90;67.60;;;;;;4942252;29;20449;-85
2023/09/11 15:14:11;;;;;;;0.00;0.00;;;25.90;67.80;;;;;;4940620;29;20039;-82
2023/09/11 15:16:37;;;;;;;0.00;0.00;;;25.80;68.00;;;;;;4959526;29;20071;-83
2023/09/11 15:19:02;;;;;;;0.00;0.00;;;25.90;67.70;;;;;;4959320;29;20031;-81
2023/09/11 15:21:29;;;;;;;0.00;0.00;;;25.80;67.50;;;;;;4949493;29;20089;-82
2023/09/11 15:24:01;;;;;;;0.08;0.00;;;25.80;67.50;;;;;;4959091;29;20023;-83
2023/09/11 15:26:27;;;;;;;0.10;0.00;;;25.80;67.20;;;;;;4958878;29;20023;-83
2023/09/11 15:28:53;;;;;;;0.00;0.00;;;25.80;67.50;;;;;;4940948;29;20506;-83
2023/09/11 15:31:18;;;;;;;0.00;0.00;;;25.90;67.50;;;;;;4958699;29;20047;-83
2023/09/11 15:33:44;;;;;;;0.00;0.00;;;25.80;67.40;;;;;;4957500;28;20050;-83
2023/09/11 15:36:10;;;;;;;0.00;0.00;;;25.80;68.20;;;;;;4957921;28;20036;-83
2023/09/11 15:38:40;;;;;;;0.00;0.00;;;25.80;67.40;;;;;;4940170;29;20035;-83
2023/09/11 15:41:07;;;;;;;0.00;0.00;;;25.80;67.10;;;;;;4943794;28;20038;-84
2023/09/11 15:43:34;;;;;;;0.05;0.05;;;25.80;66.90;;;;;;4958444;28;20948;-85
2023/09/11 15:46:04;;;;;;;0.08;0.08;;;26.10;66.60;;;;;;4953528;28;20588;-84
2023/09/11 15:48:32;;;;;;;0.00;0.00;;;26.30;66.00;;;;;;4958694;29;20054;-84
2023/09/11 15:50:59;;;;;;;0.00;0.00;;;26.40;65.70;;;;;;4950820;28;20082;-84
2023/09/11 15:53:28;;;;;;;0.00;0.00;;;26.50;65.20;;;;;;4939671;29;20028;-84
2023/09/11 15:55:55;;;;;;;0.03;0.03;;;26.40;64.50;;;;;;4942008;29;20035;-84
2023/09/11 15:58:21;;;;;;;0.00;0.00;;;26.40;65.00;;;;;;4939722;29;20032;-80
2023/09/11 16:00:47;;;;;;;0.00;0.00;;;26.30;65.20;;;;;;4932840;28;20035;-81
2023/09/11 16:03:13;;;;;;;0.22;0.05;;;26.30;65.20;;;;;;4952445;28;20020;-84
2023/09/11 16:05:42;;;;;;;0.00;0.00;;;26.10;65.60;;;;;;4955046;28;20554;-81
2023/09/11 16:08:09;;;;;;;0.00;0.00;;;26.00;66.00;;;;;;4958319;23;20059;-79
2023/09/11 16:10:34;;;;;;;0.00;0.00;;;25.90;66.30;;;;;;4946882;28;20041;-82
2023/09/11 16:13:01;;;;;;;0.00;0.00;;;25.80;66.60;;;;;;4953785;28;20035;-88
2023/09/11 16:15:35;;;;;;;0.00;0.00;;;25.80;67.00;;;;;;4947365;29;20031;-81
2023/09/11 16:18:01;;;;;;;0.00;0.00;;;25.70;67.20;;;;;;4953492;28;20031;-86
2023/09/11 16:20:32;;;;;;;0.00;0.00;;;25.70;67.10;;;;;;4947982;29;20027;-84
2023/09/11 16:22:59;;;;;;;0.00;0.00;;;25.70;67.00;;;;;;4951742;29;20024;-82
2023/09/11 16:25:26;;;;;;;0.00;0.00;;;25.60;67.30;;;;;;4951223;29;20034;-83
2023/09/11 16:27:52;;;;;;;0.00;0.00;;;25.60;67.20;;;;;;4931114;29;20038;-83
2023/09/11 16:30:18;;;;;;;0.00;0.00;;;25.50;67.60;;;;;;4949879;29;20035;-84
2023/09/11 16:32:45;;;;;;;0.00;0.00;;;25.50;67.70;;;;;;4933264;29;20027;-84
2023/09/11 16:35:11;;;;;;;0.00;0.00;;;25.30;68.30;;;;;;4948383;28;20031;-83
2023/09/11 16:37:40;;;;;;;0.00;0.00;;;25.30;68.60;;;;;;4948475;28;20070;-80
2023/09/11 16:40:09;;;;;;;0.00;0.00;;;25.20;68.70;;;;;;4954418;28;20074;-82
2023/09/11 16:42:42;;;;;;;0.00;0.00;;;25.30;68.70;;;;;;4952973;29;20074;-80
2023/09/11 16:45:08;;;;;;;0.00;0.00;;;25.30;68.50;;;;;;4950346;29;20091;-81
2023/09/11 16:47:34;;;;;;;0.00;0.00;;;25.30;68.50;;;;;;4949933;29;20023;-89
2023/09/11 16:49:59;;;;;;;0.00;0.00;;;25.20;68.40;;;;;;4947380;28;20033;-84
2023/09/11 16:52:25;;;;;;;0.00;0.00;;;25.20;68.20;;;;;;4948609;29;20082;-84
2023/09/11 16:54:50;;;;;;;0.00;0.00;;;25.10;68.40;;;;;;4946656;29;20466;-88
2023/09/11 16:57:16;;;;;;;0.00;0.00;;;25.00;68.80;;;;;;4933742;29;20031;-88
2023/09/11 16:59:41;;;;;;;0.00;0.00;;;25.00;69.10;;;;;;4949392;29;20028;-82
2023/09/11 17:02:07;;;;;;;0.00;0.00;;;25.00;69.30;;;;;;4949689;28;20023;-80
2023/09/11 17:04:33;;;;;;;0.00;0.00;;;25.00;69.10;;;;;;4950106;28;20035;-86
2023/09/11 17:06:58;;;;;;;0.00;0.00;;;24.90;69.00;;;;;;4938529;29;20043;-91
2023/09/11 17:09:24;;;;;;;0.00;0.00;;;24.80;69.00;;;;;;4949457;28;20444;-88
2023/09/11 17:11:50;;;;;;;0.00;0.00;;;24.70;69.30;;;;;;4946070;28;20087;-82
2023/09/11 17:14:15;;;;;;;0.00;0.00;;;24.70;69.40;;;;;;4938894;29;20034;-87
2023/09/11 17:16:41;;;;;;;0.00;0.00;;;24.60;69.60;;;;;;4957209;29;20028;-84
2023/09/11 17:19:08;;;;;;;0.00;0.00;;;24.60;69.60;;;;;;4923534;29;20407;-80